sensor_id;sensor_type;location;lat;lon;timestamp;P1;durP1;ratioP1;P2;durP2;ratioP2
38037;SDS011;23843;51.320;12.340;2024-03-02T00:00:06;2.83;;;1.73;;
38037;SDS011;23843;51.320;12.340;2024-03-02T00:02:52;2.17;;;1.47;;
38037;SDS011;23843;51.320;12.340;2024-03-02T00:05:19;3.43;;;2.30;;
38037;SDS011;23843;51.320;12.340;2024-03-02T00:07:47;3.83;;;2.00;;
38037;SDS011;23843;51.320;12.340;2024-03-02T00:10:19;3.60;;;1.87;;
38037;SDS011;23843;51.320;12.340;2024-03-02T00:12:48;3.20;;;1.97;;
38037;SDS011;23843;51.320;12.340;2024-03-02T00:15:40;3.60;;;2.30;;
38037;SDS011;23843;51.320;12.340;2024-03-02T00:18:26;4.27;;;2.30;;
38037;SDS011;23843;51.320;12.340;2024-03-02T00:21:15;3.93;;;2.60;;
38037;SDS011;23843;51.320;12.340;2024-03-02T00:24:01;5.57;;;3.07;;
38037;SDS011;23843;51.320;12.340;2024-03-02T00:26:54;4.67;;;2.87;;
38037;SDS011;23843;51.320;12.340;2024-03-02T00:29:21;4.20;;;2.37;;
38037;SDS011;23843;51.320;12.340;2024-03-02T00:31:47;4.37;;;2.20;;
38037;SDS011;23843;51.320;12.340;2024-03-02T00:34:13;3.37;;;1.90;;
38037;SDS011;23843;51.320;12.340;2024-03-02T00:36:39;2.40;;;1.70;;
38037;SDS011;23843;51.320;12.340;2024-03-02T00:39:05;2.80;;;1.80;;
38037;SDS011;23843;51.320;12.340;2024-03-02T00:41:31;3.20;;;1.80;;
38037;SDS011;23843;51.320;12.340;2024-03-02T00:43:57;3.57;;;1.50;;
38037;SDS011;23843;51.320;12.340;2024-03-02T00:46:26;1.93;;;1.30;;
38037;SDS011;23843;51.320;12.340;2024-03-02T00:48:53;2.27;;;1.37;;
38037;SDS011;23843;51.320;12.340;2024-03-02T00:51:20;2.23;;;1.20;;
38037;SDS011;23843;51.320;12.340;2024-03-02T00:53:47;1.57;;;1.13;;
38037;SDS011;23843;51.320;12.340;2024-03-02T00:56:13;2.87;;;1.10;;
38037;SDS011;23843;51.320;12.340;2024-03-02T00:58:59;1.97;;;1.33;;
38037;SDS011;23843;51.320;12.340;2024-03-02T01:01:26;1.70;;;1.10;;
38037;SDS011;23843;51.320;12.340;2024-03-02T01:03:51;2.80;;;1.60;;
38037;SDS011;23843;51.320;12.340;2024-03-02T01:06:18;2.07;;;1.20;;
38037;SDS011;23843;51.320;12.340;2024-03-02T01:08:44;2.33;;;1.50;;
38037;SDS011;23843;51.320;12.340;2024-03-02T01:11:10;2.73;;;1.40;;
38037;SDS011;23843;51.320;12.340;2024-03-02T01:13:36;1.77;;;1.27;;
38037;SDS011;23843;51.320;12.340;2024-03-02T01:16:02;2.50;;;1.50;;
38037;SDS011;23843;51.320;12.340;2024-03-02T01:18:29;2.53;;;1.60;;
38037;SDS011;23843;51.320;12.340;2024-03-02T01:20:55;2.73;;;1.53;;
38037;SDS011;23843;51.320;12.340;2024-03-02T01:23:21;3.80;;;2.03;;
38037;SDS011;23843;51.320;12.340;2024-03-02T01:25:46;3.40;;;1.87;;
38037;SDS011;23843;51.320;12.340;2024-03-02T01:28:12;3.90;;;2.20;;
38037;SDS011;23843;51.320;12.340;2024-03-02T01:30:38;3.17;;;1.97;;
38037;SDS011;23843;51.320;12.340;2024-03-02T01:33:04;3.07;;;1.80;;
38037;SDS011;23843;51.320;12.340;2024-03-02T01:35:31;2.90;;;2.00;;
38037;SDS011;23843;51.320;12.340;2024-03-02T01:37:57;2.43;;;1.53;;
38037;SDS011;23843;51.320;12.340;2024-03-02T01:40:23;2.77;;;1.60;;
38037;SDS011;23843;51.320;12.340;2024-03-02T01:42:49;3.20;;;1.57;;
38037;SDS011;23843;51.320;12.340;2024-03-02T01:45:35;2.33;;;1.40;;
38037;SDS011;23843;51.320;12.340;2024-03-02T01:48:01;2.63;;;1.57;;
38037;SDS011;23843;51.320;12.340;2024-03-02T01:50:27;2.00;;;1.30;;
38037;SDS011;23843;51.320;12.340;2024-03-02T01:52:54;1.90;;;1.43;;
38037;SDS011;23843;51.320;12.340;2024-03-02T01:55:20;2.00;;;1.30;;
38037;SDS011;23843;51.320;12.340;2024-03-02T01:57:46;2.10;;;1.30;;
38037;SDS011;23843;51.320;12.340;2024-03-02T02:00:12;2.73;;;1.47;;
38037;SDS011;23843;51.320;12.340;2024-03-02T02:02:38;3.33;;;1.87;;
38037;SDS011;23843;51.320;12.340;2024-03-02T02:05:03;4.20;;;2.80;;
38037;SDS011;23843;51.320;12.340;2024-03-02T02:07:29;5.43;;;3.17;;
38037;SDS011;23843;51.320;12.340;2024-03-02T02:09:57;3.30;;;2.33;;
38037;SDS011;23843;51.320;12.340;2024-03-02T02:12:23;6.00;;;3.53;;
38037;SDS011;23843;51.320;12.340;2024-03-02T02:14:49;5.47;;;3.40;;
38037;SDS011;23843;51.320;12.340;2024-03-02T02:17:15;4.50;;;2.60;;
38037;SDS011;23843;51.320;12.340;2024-03-02T02:19:41;3.90;;;2.40;;
38037;SDS011;23843;51.320;12.340;2024-03-02T02:22:08;2.60;;;1.70;;
38037;SDS011;23843;51.320;12.340;2024-03-02T02:24:34;4.07;;;1.70;;
38037;SDS011;23843;51.320;12.340;2024-03-02T02:27:00;2.33;;;1.57;;
38037;SDS011;23843;51.320;12.340;2024-03-02T02:29:27;1.73;;;1.30;;
38037;SDS011;23843;51.320;12.340;2024-03-02T02:32:12;1.77;;;1.10;;
38037;SDS011;23843;51.320;12.340;2024-03-02T02:34:38;1.27;;;1.10;;
38037;SDS011;23843;51.320;12.340;2024-03-02T02:37:03;1.83;;;1.20;;
38037;SDS011;23843;51.320;12.340;2024-03-02T02:39:31;1.60;;;1.00;;
38037;SDS011;23843;51.320;12.340;2024-03-02T02:41:56;1.37;;;0.93;;
38037;SDS011;23843;51.320;12.340;2024-03-02T02:44:22;2.13;;;1.43;;
38037;SDS011;23843;51.320;12.340;2024-03-02T02:46:47;1.77;;;1.20;;
38037;SDS011;23843;51.320;12.340;2024-03-02T02:49:13;1.73;;;1.00;;
38037;SDS011;23843;51.320;12.340;2024-03-02T02:51:39;1.67;;;1.00;;
38037;SDS011;23843;51.320;12.340;2024-03-02T02:54:05;1.97;;;1.10;;
38037;SDS011;23843;51.320;12.340;2024-03-02T02:56:31;1.50;;;1.07;;
38037;SDS011;23843;51.320;12.340;2024-03-02T02:58:57;1.73;;;0.87;;
38037;SDS011;23843;51.320;12.340;2024-03-02T03:01:23;1.37;;;0.93;;
38037;SDS011;23843;51.320;12.340;2024-03-02T03:03:49;1.23;;;0.90;;
38037;SDS011;23843;51.320;12.340;2024-03-02T03:06:15;1.43;;;0.73;;
38037;SDS011;23843;51.320;12.340;2024-03-02T03:08:40;1.10;;;0.80;;
38037;SDS011;23843;51.320;12.340;2024-03-02T03:11:06;1.30;;;1.00;;
38037;SDS011;23843;51.320;12.340;2024-03-02T03:13:33;1.00;;;0.73;;
38037;SDS011;23843;51.320;12.340;2024-03-02T03:16:00;0.90;;;0.70;;
38037;SDS011;23843;51.320;12.340;2024-03-02T03:18:45;1.33;;;1.00;;
38037;SDS011;23843;51.320;12.340;2024-03-02T03:21:31;2.07;;;1.20;;
38037;SDS011;23843;51.320;12.340;2024-03-02T03:23:56;1.70;;;1.00;;
38037;SDS011;23843;51.320;12.340;2024-03-02T03:26:22;1.37;;;0.90;;
38037;SDS011;23843;51.320;12.340;2024-03-02T03:28:49;2.23;;;1.20;;
38037;SDS011;23843;51.320;12.340;2024-03-02T03:31:15;1.43;;;1.00;;
38037;SDS011;23843;51.320;12.340;2024-03-02T03:33:40;1.97;;;1.23;;
38037;SDS011;23843;51.320;12.340;2024-03-02T03:36:06;1.17;;;0.97;;
38037;SDS011;23843;51.320;12.340;2024-03-02T03:38:32;1.30;;;1.00;;
38037;SDS011;23843;51.320;12.340;2024-03-02T03:40:58;1.30;;;0.83;;
38037;SDS011;23843;51.320;12.340;2024-03-02T03:43:23;1.93;;;0.70;;
38037;SDS011;23843;51.320;12.340;2024-03-02T03:45:50;1.13;;;0.90;;
38037;SDS011;23843;51.320;12.340;2024-03-02T03:48:16;2.43;;;0.90;;
38037;SDS011;23843;51.320;12.340;2024-03-02T03:50:43;1.57;;;1.00;;
38037;SDS011;23843;51.320;12.340;2024-03-02T03:53:08;1.30;;;0.90;;
38037;SDS011;23843;51.320;12.340;2024-03-02T03:55:34;0.97;;;0.70;;
38037;SDS011;23843;51.320;12.340;2024-03-02T03:58:00;1.00;;;0.70;;
38037;SDS011;23843;51.320;12.340;2024-03-02T04:00:26;1.83;;;1.10;;
38037;SDS011;23843;51.320;12.340;2024-03-02T04:02:53;2.67;;;1.20;;
38037;SDS011;23843;51.320;12.340;2024-03-02T04:05:20;2.23;;;1.63;;
38037;SDS011;23843;51.320;12.340;2024-03-02T04:08:05;1.43;;;1.07;;
38037;SDS011;23843;51.320;12.340;2024-03-02T04:10:31;1.50;;;1.00;;
38037;SDS011;23843;51.320;12.340;2024-03-02T04:12:56;1.50;;;0.90;;
38037;SDS011;23843;51.320;12.340;2024-03-02T04:15:22;1.07;;;0.80;;
38037;SDS011;23843;51.320;12.340;2024-03-02T04:17:47;1.07;;;0.90;;
38037;SDS011;23843;51.320;12.340;2024-03-02T04:20:15;1.10;;;0.83;;
38037;SDS011;23843;51.320;12.340;2024-03-02T04:22:40;1.47;;;0.90;;
38037;SDS011;23843;51.320;12.340;2024-03-02T04:25:06;1.47;;;0.97;;
38037;SDS011;23843;51.320;12.340;2024-03-02T04:27:33;1.50;;;0.90;;
38037;SDS011;23843;51.320;12.340;2024-03-02T04:29:58;1.10;;;0.90;;
38037;SDS011;23843;51.320;12.340;2024-03-02T04:32:24;1.30;;;0.90;;
38037;SDS011;23843;51.320;12.340;2024-03-02T04:34:50;1.07;;;0.80;;
38037;SDS011;23843;51.320;12.340;2024-03-02T04:37:17;1.67;;;1.00;;
38037;SDS011;23843;51.320;12.340;2024-03-02T04:39:43;1.57;;;1.30;;
38037;SDS011;23843;51.320;12.340;2024-03-02T04:42:08;1.43;;;1.03;;
38037;SDS011;23843;51.320;12.340;2024-03-02T04:44:34;2.07;;;0.90;;
38037;SDS011;23843;51.320;12.340;2024-03-02T04:47:00;1.97;;;0.90;;
38037;SDS011;23843;51.320;12.340;2024-03-02T04:49:27;1.30;;;0.90;;
38037;SDS011;23843;51.320;12.340;2024-03-02T04:51:53;0.70;;;0.70;;
38037;SDS011;23843;51.320;12.340;2024-03-02T04:54:40;1.30;;;0.90;;
38037;SDS011;23843;51.320;12.340;2024-03-02T04:57:06;1.30;;;0.90;;
38037;SDS011;23843;51.320;12.340;2024-03-02T04:59:31;1.20;;;0.87;;
38037;SDS011;23843;51.320;12.340;2024-03-02T05:01:57;1.33;;;1.00;;
38037;SDS011;23843;51.320;12.340;2024-03-02T05:04:22;1.23;;;0.80;;
38037;SDS011;23843;51.320;12.340;2024-03-02T05:06:48;1.53;;;0.80;;
38037;SDS011;23843;51.320;12.340;2024-03-02T05:09:14;2.33;;;1.20;;
38037;SDS011;23843;51.320;12.340;2024-03-02T05:11:41;1.60;;;1.00;;
38037;SDS011;23843;51.320;12.340;2024-03-02T05:14:07;1.57;;;0.90;;
38037;SDS011;23843;51.320;12.340;2024-03-02T05:16:33;1.00;;;0.70;;
38037;SDS011;23843;51.320;12.340;2024-03-02T05:18:58;1.80;;;1.20;;
38037;SDS011;23843;51.320;12.340;2024-03-02T05:21:24;1.33;;;1.00;;
38037;SDS011;23843;51.320;12.340;2024-03-02T05:23:50;2.67;;;1.40;;
38037;SDS011;23843;51.320;12.340;2024-03-02T05:26:16;3.03;;;1.70;;
38037;SDS011;23843;51.320;12.340;2024-03-02T05:28:43;1.20;;;0.97;;
38037;SDS011;23843;51.320;12.340;2024-03-02T05:31:09;1.77;;;1.27;;
38037;SDS011;23843;51.320;12.340;2024-03-02T05:33:37;1.67;;;1.07;;
38037;SDS011;23843;51.320;12.340;2024-03-02T05:36:03;1.40;;;0.80;;
38037;SDS011;23843;51.320;12.340;2024-03-02T05:38:29;1.37;;;0.97;;
38037;SDS011;23843;51.320;12.340;2024-03-02T05:41:14;1.77;;;1.23;;
38037;SDS011;23843;51.320;12.340;2024-03-02T05:43:40;1.00;;;0.80;;
38037;SDS011;23843;51.320;12.340;2024-03-02T05:46:07;1.20;;;0.90;;
38037;SDS011;23843;51.320;12.340;2024-03-02T05:48:32;0.83;;;0.70;;
38037;SDS011;23843;51.320;12.340;2024-03-02T05:50:58;1.20;;;0.93;;
38037;SDS011;23843;51.320;12.340;2024-03-02T05:53:24;1.07;;;0.80;;
38037;SDS011;23843;51.320;12.340;2024-03-02T05:55:49;1.00;;;0.87;;
38037;SDS011;23843;51.320;12.340;2024-03-02T05:58:15;1.27;;;0.83;;
38037;SDS011;23843;51.320;12.340;2024-03-02T06:00:41;1.30;;;0.90;;
38037;SDS011;23843;51.320;12.340;2024-03-02T06:03:08;1.20;;;0.80;;
38037;SDS011;23843;51.320;12.340;2024-03-02T06:05:34;1.07;;;0.87;;
38037;SDS011;23843;51.320;12.340;2024-03-02T06:08:00;1.27;;;0.90;;
38037;SDS011;23843;51.320;12.340;2024-03-02T06:10:25;1.30;;;0.90;;
38037;SDS011;23843;51.320;12.340;2024-03-02T06:12:51;2.23;;;1.57;;
38037;SDS011;23843;51.320;12.340;2024-03-02T06:15:17;2.60;;;1.60;;
38037;SDS011;23843;51.320;12.340;2024-03-02T06:17:43;3.87;;;2.30;;
38037;SDS011;23843;51.320;12.340;2024-03-02T06:20:10;4.00;;;1.93;;
38037;SDS011;23843;51.320;12.340;2024-03-02T06:22:36;2.53;;;1.70;;
38037;SDS011;23843;51.320;12.340;2024-03-02T06:25:02;2.47;;;1.50;;
38037;SDS011;23843;51.320;12.340;2024-03-02T06:27:48;2.70;;;1.60;;
38037;SDS011;23843;51.320;12.340;2024-03-02T06:30:34;2.20;;;1.40;;
38037;SDS011;23843;51.320;12.340;2024-03-02T06:33:19;2.17;;;1.30;;
38037;SDS011;23843;51.320;12.340;2024-03-02T06:35:46;3.00;;;1.43;;
38037;SDS011;23843;51.320;12.340;2024-03-02T06:38:12;3.50;;;2.20;;
38037;SDS011;23843;51.320;12.340;2024-03-02T06:40:38;5.80;;;3.37;;
38037;SDS011;23843;51.320;12.340;2024-03-02T06:43:03;7.00;;;3.77;;
38037;SDS011;23843;51.320;12.340;2024-03-02T06:45:29;4.97;;;3.00;;
38037;SDS011;23843;51.320;12.340;2024-03-02T06:47:56;4.03;;;2.40;;
38037;SDS011;23843;51.320;12.340;2024-03-02T06:50:22;2.70;;;1.73;;
38037;SDS011;23843;51.320;12.340;2024-03-02T06:52:49;2.27;;;1.30;;
38037;SDS011;23843;51.320;12.340;2024-03-02T06:55:14;1.93;;;1.30;;
38037;SDS011;23843;51.320;12.340;2024-03-02T06:57:40;1.10;;;0.83;;
38037;SDS011;23843;51.320;12.340;2024-03-02T07:00:06;1.80;;;1.20;;
38037;SDS011;23843;51.320;12.340;2024-03-02T07:02:33;1.87;;;1.27;;
38037;SDS011;23843;51.320;12.340;2024-03-02T07:04:58;1.20;;;1.00;;
38037;SDS011;23843;51.320;12.340;2024-03-02T07:07:24;4.80;;;2.37;;
38037;SDS011;23843;51.320;12.340;2024-03-02T07:09:51;3.70;;;2.30;;
38037;SDS011;23843;51.320;12.340;2024-03-02T07:12:16;3.83;;;2.13;;
38037;SDS011;23843;51.320;12.340;2024-03-02T07:14:42;3.50;;;1.97;;
38037;SDS011;23843;51.320;12.340;2024-03-02T07:17:27;3.67;;;2.33;;
38037;SDS011;23843;51.320;12.340;2024-03-02T07:20:13;5.10;;;3.00;;
38037;SDS011;23843;51.320;12.340;2024-03-02T07:22:39;5.03;;;3.23;;
38037;SDS011;23843;51.320;12.340;2024-03-02T07:25:06;4.40;;;3.07;;
38037;SDS011;23843;51.320;12.340;2024-03-02T07:27:32;5.23;;;3.10;;
38037;SDS011;23843;51.320;12.340;2024-03-02T07:29:58;7.23;;;4.13;;
38037;SDS011;23843;51.320;12.340;2024-03-02T07:32:23;6.03;;;3.30;;
38037;SDS011;23843;51.320;12.340;2024-03-02T07:34:49;7.50;;;4.00;;
38037;SDS011;23843;51.320;12.340;2024-03-02T07:37:15;5.50;;;3.27;;
38037;SDS011;23843;51.320;12.340;2024-03-02T07:39:40;5.17;;;3.33;;
38037;SDS011;23843;51.320;12.340;2024-03-02T07:42:08;5.00;;;2.80;;
38037;SDS011;23843;51.320;12.340;2024-03-02T07:44:33;6.37;;;3.73;;
38037;SDS011;23843;51.320;12.340;2024-03-02T07:46:59;5.60;;;3.13;;
38037;SDS011;23843;51.320;12.340;2024-03-02T07:49:25;5.50;;;3.20;;
38037;SDS011;23843;51.320;12.340;2024-03-02T07:51:51;6.03;;;3.20;;
38037;SDS011;23843;51.320;12.340;2024-03-02T07:54:17;3.30;;;2.23;;
38037;SDS011;23843;51.320;12.340;2024-03-02T07:56:42;4.67;;;2.83;;
38037;SDS011;23843;51.320;12.340;2024-03-02T07:59:10;4.03;;;2.43;;
38037;SDS011;23843;51.320;12.340;2024-03-02T08:01:36;4.50;;;2.60;;
38037;SDS011;23843;51.320;12.340;2024-03-02T08:04:02;6.07;;;4.00;;
38037;SDS011;23843;51.320;12.340;2024-03-02T08:06:28;6.73;;;3.47;;
38037;SDS011;23843;51.320;12.340;2024-03-02T08:08:53;6.40;;;3.30;;
38037;SDS011;23843;51.320;12.340;2024-03-02T08:11:19;4.97;;;2.93;;
38037;SDS011;23843;51.320;12.340;2024-03-02T08:13:45;6.60;;;3.37;;
38037;SDS011;23843;51.320;12.340;2024-03-02T08:16:12;6.33;;;3.70;;
38037;SDS011;23843;51.320;12.340;2024-03-02T08:18:38;3.93;;;2.50;;
38037;SDS011;23843;51.320;12.340;2024-03-02T08:21:04;5.00;;;2.87;;
38037;SDS011;23843;51.320;12.340;2024-03-02T08:23:30;3.50;;;2.20;;
38037;SDS011;23843;51.320;12.340;2024-03-02T08:25:55;2.83;;;2.00;;
38037;SDS011;23843;51.320;12.340;2024-03-02T08:28:22;3.87;;;2.10;;
38037;SDS011;23843;51.320;12.340;2024-03-02T08:30:48;3.73;;;2.20;;
38037;SDS011;23843;51.320;12.340;2024-03-02T08:33:15;3.87;;;2.50;;
38037;SDS011;23843;51.320;12.340;2024-03-02T08:35:40;3.07;;;2.00;;
38037;SDS011;23843;51.320;12.340;2024-03-02T08:38:07;2.83;;;1.87;;
38037;SDS011;23843;51.320;12.340;2024-03-02T08:40:32;5.60;;;3.23;;
38037;SDS011;23843;51.320;12.340;2024-03-02T08:42:58;8.53;;;4.83;;
38037;SDS011;23843;51.320;12.340;2024-03-02T08:45:24;7.20;;;4.80;;
38037;SDS011;23843;51.320;12.340;2024-03-02T08:47:54;7.80;;;4.60;;
38037;SDS011;23843;51.320;12.340;2024-03-02T08:50:31;8.83;;;5.00;;
38037;SDS011;23843;51.320;12.340;2024-03-02T08:53:17;8.07;;;4.80;;
38037;SDS011;23843;51.320;12.340;2024-03-02T08:55:43;7.27;;;4.60;;
38037;SDS011;23843;51.320;12.340;2024-03-02T08:58:09;8.53;;;4.47;;
38037;SDS011;23843;51.320;12.340;2024-03-02T09:00:36;5.87;;;3.53;;
38037;SDS011;23843;51.320;12.340;2024-03-02T09:03:03;6.60;;;4.00;;
38037;SDS011;23843;51.320;12.340;2024-03-02T09:05:28;6.23;;;4.10;;
38037;SDS011;23843;51.320;12.340;2024-03-02T09:07:56;8.17;;;4.20;;
38037;SDS011;23843;51.320;12.340;2024-03-02T09:10:21;6.20;;;3.63;;
38037;SDS011;23843;51.320;12.340;2024-03-02T09:12:47;5.70;;;3.30;;
38037;SDS011;23843;51.320;12.340;2024-03-02T09:15:13;7.00;;;4.70;;
38037;SDS011;23843;51.320;12.340;2024-03-02T09:17:38;6.73;;;3.97;;
38037;SDS011;23843;51.320;12.340;2024-03-02T09:20:04;7.80;;;4.30;;
38037;SDS011;23843;51.320;12.340;2024-03-02T09:22:32;11.90;;;7.10;;
38037;SDS011;23843;51.320;12.340;2024-03-02T09:24:58;10.17;;;6.30;;
38037;SDS011;23843;51.320;12.340;2024-03-02T09:27:24;10.47;;;6.50;;
38037;SDS011;23843;51.320;12.340;2024-03-02T09:29:50;15.27;;;8.70;;
38037;SDS011;23843;51.320;12.340;2024-03-02T09:32:15;14.07;;;7.73;;
38037;SDS011;23843;51.320;12.340;2024-03-02T09:34:41;15.43;;;8.50;;
38037;SDS011;23843;51.320;12.340;2024-03-02T09:37:07;17.93;;;10.07;;
38037;SDS011;23843;51.320;12.340;2024-03-02T09:39:54;18.03;;;9.90;;
38037;SDS011;23843;51.320;12.340;2024-03-02T09:42:19;15.20;;;8.10;;
38037;SDS011;23843;51.320;12.340;2024-03-02T09:44:45;12.60;;;7.93;;
38037;SDS011;23843;51.320;12.340;2024-03-02T09:47:12;10.97;;;5.77;;
38037;SDS011;23843;51.320;12.340;2024-03-02T09:49:38;9.13;;;5.50;;
38037;SDS011;23843;51.320;12.340;2024-03-02T09:52:05;8.80;;;4.80;;
38037;SDS011;23843;51.320;12.340;2024-03-02T09:54:32;7.73;;;3.77;;
38037;SDS011;23843;51.320;12.340;2024-03-02T09:56:59;5.13;;;3.27;;
38037;SDS011;23843;51.320;12.340;2024-03-02T09:59:25;5.63;;;3.37;;
38037;SDS011;23843;51.320;12.340;2024-03-02T10:01:57;7.13;;;4.10;;
38037;SDS011;23843;51.320;12.340;2024-03-02T10:04:24;9.83;;;5.33;;
38037;SDS011;23843;51.320;12.340;2024-03-02T10:06:51;8.03;;;4.80;;
38037;SDS011;23843;51.320;12.340;2024-03-02T10:09:22;6.27;;;3.93;;
38037;SDS011;23843;51.320;12.340;2024-03-02T10:11:52;9.33;;;4.90;;
38037;SDS011;23843;51.320;12.340;2024-03-02T10:14:20;8.33;;;4.77;;
38037;SDS011;23843;51.320;12.340;2024-03-02T10:16:45;6.13;;;3.40;;
38037;SDS011;23843;51.320;12.340;2024-03-02T10:19:18;6.67;;;3.80;;
38037;SDS011;23843;51.320;12.340;2024-03-02T10:21:44;4.73;;;3.20;;
38037;SDS011;23843;51.320;12.340;2024-03-02T10:24:11;3.70;;;2.37;;
38037;SDS011;23843;51.320;12.340;2024-03-02T10:26:56;2.47;;;1.60;;
38037;SDS011;23843;51.320;12.340;2024-03-02T10:29:23;3.80;;;2.53;;
38037;SDS011;23843;51.320;12.340;2024-03-02T10:31:49;7.13;;;4.03;;
38037;SDS011;23843;51.320;12.340;2024-03-02T10:34:15;4.47;;;3.20;;
38037;SDS011;23843;51.320;12.340;2024-03-02T10:36:41;7.47;;;4.90;;
38037;SDS011;23843;51.320;12.340;2024-03-02T10:39:08;7.53;;;4.07;;
38037;SDS011;23843;51.320;12.340;2024-03-02T10:41:34;7.67;;;4.00;;
38037;SDS011;23843;51.320;12.340;2024-03-02T10:44:02;4.83;;;3.30;;
38037;SDS011;23843;51.320;12.340;2024-03-02T10:46:30;3.67;;;2.37;;
38037;SDS011;23843;51.320;12.340;2024-03-02T10:48:56;4.40;;;3.13;;
38037;SDS011;23843;51.320;12.340;2024-03-02T10:51:22;4.77;;;2.70;;
38037;SDS011;23843;51.320;12.340;2024-03-02T10:53:48;4.17;;;2.30;;
38037;SDS011;23843;51.320;12.340;2024-03-02T10:56:15;5.37;;;3.13;;
38037;SDS011;23843;51.320;12.340;2024-03-02T10:58:47;4.87;;;3.07;;
38037;SDS011;23843;51.320;12.340;2024-03-02T11:01:16;5.00;;;3.10;;
38037;SDS011;23843;51.320;12.340;2024-03-02T11:03:45;4.80;;;3.03;;
38037;SDS011;23843;51.320;12.340;2024-03-02T11:06:10;3.93;;;2.37;;
38037;SDS011;23843;51.320;12.340;2024-03-02T11:08:38;1.77;;;1.30;;
38037;SDS011;23843;51.320;12.340;2024-03-02T11:11:27;3.63;;;2.20;;
38037;SDS011;23843;51.320;12.340;2024-03-02T11:14:16;2.20;;;1.60;;
38037;SDS011;23843;51.320;12.340;2024-03-02T11:16:46;3.53;;;2.00;;
38037;SDS011;23843;51.320;12.340;2024-03-02T11:19:13;2.97;;;1.80;;
38037;SDS011;23843;51.320;12.340;2024-03-02T11:21:41;2.00;;;1.60;;
38037;SDS011;23843;51.320;12.340;2024-03-02T11:26:56;2.27;;;1.60;;
38037;SDS011;23843;51.320;12.340;2024-03-02T11:32:12;1.40;;;1.10;;
38037;SDS011;23843;51.320;12.340;2024-03-02T11:34:42;2.40;;;1.67;;
38037;SDS011;23843;51.320;12.340;2024-03-02T11:37:11;2.30;;;1.70;;
38037;SDS011;23843;51.320;12.340;2024-03-02T11:39:38;2.23;;;1.30;;
38037;SDS011;23843;51.320;12.340;2024-03-02T11:42:05;2.03;;;1.33;;
38037;SDS011;23843;51.320;12.340;2024-03-02T11:44:32;1.77;;;1.33;;
38037;SDS011;23843;51.320;12.340;2024-03-02T11:46:58;2.03;;;1.63;;
38037;SDS011;23843;51.320;12.340;2024-03-02T11:49:36;2.27;;;1.60;;
38037;SDS011;23843;51.320;12.340;2024-03-02T11:52:04;2.40;;;1.60;;
38037;SDS011;23843;51.320;12.340;2024-03-02T11:54:31;2.30;;;1.43;;
38037;SDS011;23843;51.320;12.340;2024-03-02T11:56:58;2.27;;;1.30;;
38037;SDS011;23843;51.320;12.340;2024-03-02T11:59:27;2.00;;;1.20;;
38037;SDS011;23843;51.320;12.340;2024-03-02T12:02:14;1.53;;;0.97;;
38037;SDS011;23843;51.320;12.340;2024-03-02T12:04:42;1.30;;;1.00;;
38037;SDS011;23843;51.320;12.340;2024-03-02T12:07:09;1.30;;;1.03;;
38037;SDS011;23843;51.320;12.340;2024-03-02T12:09:35;1.40;;;1.03;;
38037;SDS011;23843;51.320;12.340;2024-03-02T12:12:02;1.70;;;1.43;;
38037;SDS011;23843;51.320;12.340;2024-03-02T12:14:37;3.90;;;2.20;;
38037;SDS011;23843;51.320;12.340;2024-03-02T12:17:04;3.20;;;2.10;;
38037;SDS011;23843;51.320;12.340;2024-03-02T12:19:30;2.00;;;1.43;;
38037;SDS011;23843;51.320;12.340;2024-03-02T12:21:58;1.60;;;1.30;;
38037;SDS011;23843;51.320;12.340;2024-03-02T12:24:28;3.00;;;1.43;;
38037;SDS011;23843;51.320;12.340;2024-03-02T12:26:54;1.30;;;0.90;;
38037;SDS011;23843;51.320;12.340;2024-03-02T12:29:20;1.57;;;1.03;;
38037;SDS011;23843;51.320;12.340;2024-03-02T12:31:47;2.63;;;1.53;;
38037;SDS011;23843;51.320;12.340;2024-03-02T12:34:13;1.37;;;1.10;;
38037;SDS011;23843;51.320;12.340;2024-03-02T12:36:40;4.23;;;1.93;;
38037;SDS011;23843;51.320;12.340;2024-03-02T12:39:06;2.47;;;1.80;;
38037;SDS011;23843;51.320;12.340;2024-03-02T12:41:33;3.40;;;2.00;;
38037;SDS011;23843;51.320;12.340;2024-03-02T12:44:01;4.63;;;3.23;;
38037;SDS011;23843;51.320;12.340;2024-03-02T12:46:27;4.03;;;2.43;;
38037;SDS011;23843;51.320;12.340;2024-03-02T12:49:13;4.50;;;2.60;;
38037;SDS011;23843;51.320;12.340;2024-03-02T12:52:00;4.57;;;3.00;;
38037;SDS011;23843;51.320;12.340;2024-03-02T12:54:42;4.50;;;2.70;;
38037;SDS011;23843;51.320;12.340;2024-03-02T12:57:18;3.87;;;2.50;;
38037;SDS011;23843;51.320;12.340;2024-03-02T12:59:44;4.40;;;2.40;;
38037;SDS011;23843;51.320;12.340;2024-03-02T13:02:16;3.80;;;2.63;;
38037;SDS011;23843;51.320;12.340;2024-03-02T13:04:42;4.50;;;2.90;;
38037;SDS011;23843;51.320;12.340;2024-03-02T13:07:09;3.97;;;2.60;;
38037;SDS011;23843;51.320;12.340;2024-03-02T13:09:36;4.23;;;2.97;;
38037;SDS011;23843;51.320;12.340;2024-03-02T13:12:03;4.20;;;2.87;;
38037;SDS011;23843;51.320;12.340;2024-03-02T13:14:31;3.60;;;2.13;;
38037;SDS011;23843;51.320;12.340;2024-03-02T13:16:57;3.70;;;2.50;;
38037;SDS011;23843;51.320;12.340;2024-03-02T13:19:23;3.37;;;2.20;;
38037;SDS011;23843;51.320;12.340;2024-03-02T13:21:49;3.67;;;2.23;;
38037;SDS011;23843;51.320;12.340;2024-03-02T13:24:15;3.87;;;2.43;;
38037;SDS011;23843;51.320;12.340;2024-03-02T13:26:40;2.40;;;1.80;;
38037;SDS011;23843;51.320;12.340;2024-03-02T13:29:08;4.80;;;2.67;;
38037;SDS011;23843;51.320;12.340;2024-03-02T13:31:35;2.97;;;2.07;;
38037;SDS011;23843;51.320;12.340;2024-03-02T13:34:00;4.17;;;2.57;;
38037;SDS011;23843;51.320;12.340;2024-03-02T13:36:27;3.83;;;2.60;;
38037;SDS011;23843;51.320;12.340;2024-03-02T13:39:12;3.50;;;2.60;;
38037;SDS011;23843;51.320;12.340;2024-03-02T13:41:38;3.30;;;2.13;;
38037;SDS011;23843;51.320;12.340;2024-03-02T13:44:03;3.30;;;2.50;;
38037;SDS011;23843;51.320;12.340;2024-03-02T13:46:29;3.17;;;2.03;;
38037;SDS011;23843;51.320;12.340;2024-03-02T13:48:56;3.87;;;2.60;;
38037;SDS011;23843;51.320;12.340;2024-03-02T13:51:22;5.13;;;3.20;;
38037;SDS011;23843;51.320;12.340;2024-03-02T13:53:48;5.03;;;3.50;;
38037;SDS011;23843;51.320;12.340;2024-03-02T13:56:14;3.83;;;2.83;;
38037;SDS011;23843;51.320;12.340;2024-03-02T13:58:39;4.07;;;2.50;;
38037;SDS011;23843;51.320;12.340;2024-03-02T14:01:05;5.00;;;3.27;;
38037;SDS011;23843;51.320;12.340;2024-03-02T14:03:31;3.63;;;2.63;;
38037;SDS011;23843;51.320;12.340;2024-03-02T14:05:58;2.73;;;1.63;;
38037;SDS011;23843;51.320;12.340;2024-03-02T14:08:24;3.13;;;2.10;;
38037;SDS011;23843;51.320;12.340;2024-03-02T14:10:50;2.20;;;1.53;;
38037;SDS011;23843;51.320;12.340;2024-03-02T14:13:15;2.87;;;2.23;;
38037;SDS011;23843;51.320;12.340;2024-03-02T14:15:41;3.50;;;2.13;;
38037;SDS011;23843;51.320;12.340;2024-03-02T14:18:07;5.40;;;3.40;;
38037;SDS011;23843;51.320;12.340;2024-03-02T14:20:33;4.33;;;3.00;;
38037;SDS011;23843;51.320;12.340;2024-03-02T14:23:00;2.90;;;2.00;;
38037;SDS011;23843;51.320;12.340;2024-03-02T14:25:46;2.60;;;1.63;;
38037;SDS011;23843;51.320;12.340;2024-03-02T14:28:31;4.57;;;2.80;;
38037;SDS011;23843;51.320;12.340;2024-03-02T14:31:02;2.40;;;1.63;;
38037;SDS011;23843;51.320;12.340;2024-03-02T14:33:28;1.93;;;1.33;;
38037;SDS011;23843;51.320;12.340;2024-03-02T14:35:54;2.83;;;1.67;;
38037;SDS011;23843;51.320;12.340;2024-03-02T14:38:21;4.67;;;2.47;;
38037;SDS011;23843;51.320;12.340;2024-03-02T14:40:46;2.13;;;1.63;;
38037;SDS011;23843;51.320;12.340;2024-03-02T14:43:13;3.83;;;2.40;;